sensor_id;sensor_type;location;lat;lon;timestamp;P1;durP1;ratioP1;P2;durP2;ratioP2
43345;SDS011;28937;51.160;4.146;2023-06-04T00:00:03;2.10;;;1.30;;
43345;SDS011;28937;51.160;4.146;2023-06-04T00:02:30;3.55;;;0.95;;
43345;SDS011;28937;51.160;4.146;2023-06-04T00:04:56;6.07;;;1.23;;
43345;SDS011;28937;51.160;4.146;2023-06-04T00:07:21;4.70;;;1.50;;
43345;SDS011;28937;51.160;4.146;2023-06-04T00:09:47;10.30;;;1.20;;
43345;SDS011;28937;51.160;4.146;2023-06-04T00:12:12;4.65;;;1.38;;
43345;SDS011;28937;51.160;4.146;2023-06-04T00:14:39;4.53;;;1.08;;
43345;SDS011;28937;51.160;4.146;2023-06-04T00:17:04;3.42;;;1.10;;
43345;SDS011;28937;51.160;4.146;2023-06-04T00:19:30;1.88;;;1.00;;
43345;SDS011;28937;51.160;4.146;2023-06-04T00:21:56;2.90;;;1.33;;
43345;SDS011;28937;51.160;4.146;2023-06-04T00:24:22;3.30;;;1.42;;
43345;SDS011;28937;51.160;4.146;2023-06-04T00:26:47;3.03;;;1.10;;
43345;SDS011;28937;51.160;4.146;2023-06-04T00:29:13;7.40;;;1.42;;
43345;SDS011;28937;51.160;4.146;2023-06-04T00:31:38;5.70;;;1.50;;
43345;SDS011;28937;51.160;4.146;2023-06-04T00:34:04;4.13;;;1.02;;
43345;SDS011;28937;51.160;4.146;2023-06-04T00:36:30;3.92;;;1.10;;
43345;SDS011;28937;51.160;4.146;2023-06-04T00:38:55;5.10;;;1.00;;
43345;SDS011;28937;51.160;4.146;2023-06-04T00:41:21;7.18;;;1.92;;
43345;SDS011;28937;51.160;4.146;2023-06-04T00:43:46;4.03;;;1.25;;
43345;SDS011;28937;51.160;4.146;2023-06-04T00:46:20;4.78;;;1.20;;
43345;SDS011;28937;51.160;4.146;2023-06-04T00:48:46;5.97;;;1.40;;
43345;SDS011;28937;51.160;4.146;2023-06-04T00:51:12;4.97;;;1.52;;
43345;SDS011;28937;51.160;4.146;2023-06-04T00:53:38;3.95;;;1.42;;
43345;SDS011;28937;51.160;4.146;2023-06-04T00:56:04;3.22;;;1.33;;
43345;SDS011;28937;51.160;4.146;2023-06-04T00:58:30;4.10;;;1.27;;
43345;SDS011;28937;51.160;4.146;2023-06-04T01:01:02;4.07;;;1.08;;
43345;SDS011;28937;51.160;4.146;2023-06-04T01:03:31;2.90;;;1.23;;
43345;SDS011;28937;51.160;4.146;2023-06-04T01:06:04;5.00;;;1.40;;
43345;SDS011;28937;51.160;4.146;2023-06-04T01:08:38;3.25;;;1.20;;
43345;SDS011;28937;51.160;4.146;2023-06-04T01:11:07;1.50;;;1.00;;
43345;SDS011;28937;51.160;4.146;2023-06-04T01:13:33;3.00;;;1.20;;
43345;SDS011;28937;51.160;4.146;2023-06-04T01:15:58;4.07;;;1.10;;
43345;SDS011;28937;51.160;4.146;2023-06-04T01:18:26;3.70;;;1.05;;
43345;SDS011;28937;51.160;4.146;2023-06-04T01:20:59;3.33;;;1.10;;
43345;SDS011;28937;51.160;4.146;2023-06-04T01:23:41;2.88;;;1.55;;
43345;SDS011;28937;51.160;4.146;2023-06-04T01:26:11;2.92;;;1.50;;
43345;SDS011;28937;51.160;4.146;2023-06-04T01:28:38;4.15;;;1.35;;
43345;SDS011;28937;51.160;4.146;2023-06-04T01:31:04;8.00;;;1.20;;
43345;SDS011;28937;51.160;4.146;2023-06-04T01:33:33;2.97;;;1.10;;
43345;SDS011;28937;51.160;4.146;2023-06-04T01:35:58;6.78;;;1.30;;
43345;SDS011;28937;51.160;4.146;2023-06-04T01:38:24;3.50;;;1.55;;
43345;SDS011;28937;51.160;4.146;2023-06-04T01:40:50;5.38;;;1.40;;
43345;SDS011;28937;51.160;4.146;2023-06-04T01:43:18;2.60;;;1.35;;
43345;SDS011;28937;51.160;4.146;2023-06-04T01:45:43;3.03;;;1.55;;
43345;SDS011;28937;51.160;4.146;2023-06-04T01:48:09;2.92;;;1.52;;
43345;SDS011;28937;51.160;4.146;2023-06-04T01:50:35;6.65;;;1.90;;
43345;SDS011;28937;51.160;4.146;2023-06-04T01:53:00;2.97;;;1.52;;
43345;SDS011;28937;51.160;4.146;2023-06-04T01:55:26;3.67;;;1.35;;
43345;SDS011;28937;51.160;4.146;2023-06-04T01:57:54;3.92;;;1.15;;
43345;SDS011;28937;51.160;4.146;2023-06-04T02:00:19;3.20;;;1.08;;
43345;SDS011;28937;51.160;4.146;2023-06-04T02:02:45;3.70;;;1.50;;
43345;SDS011;28937;51.160;4.146;2023-06-04T02:05:13;7.10;;;1.50;;
43345;SDS011;28937;51.160;4.146;2023-06-04T02:07:40;3.55;;;1.30;;
43345;SDS011;28937;51.160;4.146;2023-06-04T02:10:07;4.20;;;1.63;;
43345;SDS011;28937;51.160;4.146;2023-06-04T02:12:38;2.88;;;1.25;;
43345;SDS011;28937;51.160;4.146;2023-06-04T02:15:05;4.75;;;1.50;;
43345;SDS011;28937;51.160;4.146;2023-06-04T02:17:32;5.18;;;1.42;;
43345;SDS011;28937;51.160;4.146;2023-06-04T02:19:58;6.78;;;1.65;;
43345;SDS011;28937;51.160;4.146;2023-06-04T02:22:24;3.92;;;1.38;;
43345;SDS011;28937;51.160;4.146;2023-06-04T02:24:50;2.33;;;1.40;;
43345;SDS011;28937;51.160;4.146;2023-06-04T02:27:16;3.80;;;1.27;;
43345;SDS011;28937;51.160;4.146;2023-06-04T02:29:42;4.20;;;1.40;;
43345;SDS011;28937;51.160;4.146;2023-06-04T02:32:08;3.15;;;1.65;;
43345;SDS011;28937;51.160;4.146;2023-06-04T02:34:34;2.22;;;1.60;;
43345;SDS011;28937;51.160;4.146;2023-06-04T02:37:00;2.17;;;1.40;;
43345;SDS011;28937;51.160;4.146;2023-06-04T02:39:27;3.00;;;1.35;;
43345;SDS011;28937;51.160;4.146;2023-06-04T02:41:53;3.80;;;1.23;;
43345;SDS011;28937;51.160;4.146;2023-06-04T02:44:18;6.18;;;1.67;;
43345;SDS011;28937;51.160;4.146;2023-06-04T02:46:44;3.03;;;1.55;;
43345;SDS011;28937;51.160;4.146;2023-06-04T02:49:10;5.88;;;1.73;;
43345;SDS011;28937;51.160;4.146;2023-06-04T02:51:39;3.92;;;1.52;;
43345;SDS011;28937;51.160;4.146;2023-06-04T02:54:05;3.15;;;1.60;;
43345;SDS011;28937;51.160;4.146;2023-06-04T02:56:31;5.95;;;1.40;;
43345;SDS011;28937;51.160;4.146;2023-06-04T02:58:56;5.90;;;1.50;;
43345;SDS011;28937;51.160;4.146;2023-06-04T03:01:22;3.90;;;1.50;;
43345;SDS011;28937;51.160;4.146;2023-06-04T03:03:48;4.72;;;1.65;;
43345;SDS011;28937;51.160;4.146;2023-06-04T03:06:15;3.20;;;1.73;;
43345;SDS011;28937;51.160;4.146;2023-06-04T03:08:41;3.30;;;1.58;;
43345;SDS011;28937;51.160;4.146;2023-06-04T03:11:07;4.25;;;1.98;;
43345;SDS011;28937;51.160;4.146;2023-06-04T03:13:33;3.35;;;2.03;;
43345;SDS011;28937;51.160;4.146;2023-06-04T03:15:59;3.45;;;1.50;;
43345;SDS011;28937;51.160;4.146;2023-06-04T03:18:28;2.60;;;1.60;;
43345;SDS011;28937;51.160;4.146;2023-06-04T03:20:54;2.80;;;1.50;;
43345;SDS011;28937;51.160;4.146;2023-06-04T03:23:20;5.85;;;1.88;;
43345;SDS011;28937;51.160;4.146;2023-06-04T03:25:46;3.05;;;1.60;;
43345;SDS011;28937;51.160;4.146;2023-06-04T03:28:13;2.70;;;1.58;;
43345;SDS011;28937;51.160;4.146;2023-06-04T03:30:39;2.67;;;1.80;;
43345;SDS011;28937;51.160;4.146;2023-06-04T03:33:05;3.80;;;1.55;;
43345;SDS011;28937;51.160;4.146;2023-06-04T03:35:31;4.60;;;1.88;;
43345;SDS011;28937;51.160;4.146;2023-06-04T03:37:57;5.10;;;1.70;;
43345;SDS011;28937;51.160;4.146;2023-06-04T03:40:23;3.42;;;1.90;;
43345;SDS011;28937;51.160;4.146;2023-06-04T03:42:48;2.75;;;1.65;;
43345;SDS011;28937;51.160;4.146;2023-06-04T03:45:14;4.22;;;2.10;;
43345;SDS011;28937;51.160;4.146;2023-06-04T03:47:39;4.90;;;1.70;;
43345;SDS011;28937;51.160;4.146;2023-06-04T03:50:05;2.92;;;1.90;;
43345;SDS011;28937;51.160;4.146;2023-06-04T03:52:31;2.30;;;1.45;;
43345;SDS011;28937;51.160;4.146;2023-06-04T03:54:57;4.43;;;1.75;;
43345;SDS011;28937;51.160;4.146;2023-06-04T03:57:23;3.22;;;1.55;;
43345;SDS011;28937;51.160;4.146;2023-06-04T03:59:49;4.50;;;1.73;;
43345;SDS011;28937;51.160;4.146;2023-06-04T04:02:15;2.30;;;1.52;;
43345;SDS011;28937;51.160;4.146;2023-06-04T04:04:42;4.00;;;1.80;;
43345;SDS011;28937;51.160;4.146;2023-06-04T04:07:08;4.40;;;1.80;;
43345;SDS011;28937;51.160;4.146;2023-06-04T04:09:35;7.72;;;2.30;;
43345;SDS011;28937;51.160;4.146;2023-06-04T04:12:01;2.75;;;1.83;;
43345;SDS011;28937;51.160;4.146;2023-06-04T04:14:27;2.95;;;1.65;;
43345;SDS011;28937;51.160;4.146;2023-06-04T04:16:52;3.80;;;1.73;;
43345;SDS011;28937;51.160;4.146;2023-06-04T04:19:18;3.97;;;2.05;;
43345;SDS011;28937;51.160;4.146;2023-06-04T04:21:43;3.75;;;1.50;;
43345;SDS011;28937;51.160;4.146;2023-06-04T04:24:21;4.00;;;2.10;;
43345;SDS011;28937;51.160;4.146;2023-06-04T04:26:47;4.18;;;2.22;;
43345;SDS011;28937;51.160;4.146;2023-06-04T04:29:13;4.32;;;1.55;;
43345;SDS011;28937;51.160;4.146;2023-06-04T04:31:39;6.25;;;1.70;;
43345;SDS011;28937;51.160;4.146;2023-06-04T04:34:06;6.32;;;2.20;;
43345;SDS011;28937;51.160;4.146;2023-06-04T04:36:33;5.30;;;1.85;;
43345;SDS011;28937;51.160;4.146;2023-06-04T04:39:01;3.05;;;1.67;;
43345;SDS011;28937;51.160;4.146;2023-06-04T04:41:27;3.40;;;2.15;;
43345;SDS011;28937;51.160;4.146;2023-06-04T04:43:52;6.03;;;2.28;;
43345;SDS011;28937;51.160;4.146;2023-06-04T04:46:18;4.40;;;1.90;;
43345;SDS011;28937;51.160;4.146;2023-06-04T04:48:44;5.68;;;2.17;;
43345;SDS011;28937;51.160;4.146;2023-06-04T04:51:10;4.38;;;1.98;;
43345;SDS011;28937;51.160;4.146;2023-06-04T04:53:35;7.35;;;2.10;;
43345;SDS011;28937;51.160;4.146;2023-06-04T04:56:01;6.70;;;2.20;;
43345;SDS011;28937;51.160;4.146;2023-06-04T04:58:26;4.40;;;1.83;;
43345;SDS011;28937;51.160;4.146;2023-06-04T05:00:52;3.60;;;1.98;;
43345;SDS011;28937;51.160;4.146;2023-06-04T05:03:17;3.70;;;1.85;;
43345;SDS011;28937;51.160;4.146;2023-06-04T05:05:43;7.78;;;2.20;;
43345;SDS011;28937;51.160;4.146;2023-06-04T05:08:08;5.35;;;2.00;;
43345;SDS011;28937;51.160;4.146;2023-06-04T05:10:34;6.07;;;2.15;;
43345;SDS011;28937;51.160;4.146;2023-06-04T05:13:01;4.55;;;1.98;;
43345;SDS011;28937;51.160;4.146;2023-06-04T05:15:27;5.40;;;2.30;;
43345;SDS011;28937;51.160;4.146;2023-06-04T05:17:53;4.32;;;1.83;;
43345;SDS011;28937;51.160;4.146;2023-06-04T05:20:19;3.55;;;2.00;;
43345;SDS011;28937;51.160;4.146;2023-06-04T05:22:45;4.25;;;2.25;;
43345;SDS011;28937;51.160;4.146;2023-06-04T05:25:11;5.53;;;2.10;;
43345;SDS011;28937;51.160;4.146;2023-06-04T05:27:37;4.00;;;2.20;;
43345;SDS011;28937;51.160;4.146;2023-06-04T05:30:04;3.80;;;2.15;;
43345;SDS011;28937;51.160;4.146;2023-06-04T05:32:30;4.97;;;2.13;;
43345;SDS011;28937;51.160;4.146;2023-06-04T05:34:57;2.95;;;2.03;;
43345;SDS011;28937;51.160;4.146;2023-06-04T05:37:24;3.95;;;2.30;;
43345;SDS011;28937;51.160;4.146;2023-06-04T05:39:53;5.07;;;2.20;;
43345;SDS011;28937;51.160;4.146;2023-06-04T05:42:22;3.80;;;1.95;;
43345;SDS011;28937;51.160;4.146;2023-06-04T05:44:48;5.93;;;2.38;;
43345;SDS011;28937;51.160;4.146;2023-06-04T05:47:15;4.75;;;1.70;;
43345;SDS011;28937;51.160;4.146;2023-06-04T05:49:41;4.10;;;1.95;;
43345;SDS011;28937;51.160;4.146;2023-06-04T05:52:07;3.08;;;2.05;;
43345;SDS011;28937;51.160;4.146;2023-06-04T05:54:32;3.72;;;1.80;;
43345;SDS011;28937;51.160;4.146;2023-06-04T05:56:58;4.65;;;2.20;;
43345;SDS011;28937;51.160;4.146;2023-06-04T05:59:24;4.35;;;1.60;;
43345;SDS011;28937;51.160;4.146;2023-06-04T06:01:49;3.80;;;1.75;;
43345;SDS011;28937;51.160;4.146;2023-06-04T06:04:15;3.60;;;1.80;;
43345;SDS011;28937;51.160;4.146;2023-06-04T06:06:41;3.60;;;2.03;;
43345;SDS011;28937;51.160;4.146;2023-06-04T06:09:12;3.15;;;1.98;;
43345;SDS011;28937;51.160;4.146;2023-06-04T06:11:37;5.13;;;1.90;;
43345;SDS011;28937;51.160;4.146;2023-06-04T06:14:03;5.30;;;1.77;;
43345;SDS011;28937;51.160;4.146;2023-06-04T06:16:28;3.25;;;1.65;;
43345;SDS011;28937;51.160;4.146;2023-06-04T06:18:54;2.03;;;1.65;;
43345;SDS011;28937;51.160;4.146;2023-06-04T06:21:20;7.10;;;1.80;;
43345;SDS011;28937;51.160;4.146;2023-06-04T06:23:46;5.43;;;1.88;;
43345;SDS011;28937;51.160;4.146;2023-06-04T06:26:11;2.67;;;1.30;;
43345;SDS011;28937;51.160;4.146;2023-06-04T06:28:38;3.55;;;1.80;;
43345;SDS011;28937;51.160;4.146;2023-06-04T06:31:04;5.47;;;1.77;;
43345;SDS011;28937;51.160;4.146;2023-06-04T06:33:30;8.27;;;2.10;;
43345;SDS011;28937;51.160;4.146;2023-06-04T06:35:56;2.83;;;1.77;;
43345;SDS011;28937;51.160;4.146;2023-06-04T06:38:25;3.05;;;1.60;;
43345;SDS011;28937;51.160;4.146;2023-06-04T06:40:51;1.60;;;1.27;;
43345;SDS011;28937;51.160;4.146;2023-06-04T06:43:17;4.15;;;1.60;;
43345;SDS011;28937;51.160;4.146;2023-06-04T06:45:43;3.53;;;1.48;;
43345;SDS011;28937;51.160;4.146;2023-06-04T06:48:08;2.53;;;1.17;;
43345;SDS011;28937;51.160;4.146;2023-06-04T06:50:34;2.92;;;1.90;;
43345;SDS011;28937;51.160;4.146;2023-06-04T06:53:01;5.57;;;1.73;;
43345;SDS011;28937;51.160;4.146;2023-06-04T06:55:27;2.50;;;1.58;;
43345;SDS011;28937;51.160;4.146;2023-06-04T06:57:53;2.35;;;1.40;;
43345;SDS011;28937;51.160;4.146;2023-06-04T07:00:18;3.33;;;1.83;;
43345;SDS011;28937;51.160;4.146;2023-06-04T07:02:44;4.60;;;1.63;;
43345;SDS011;28937;51.160;4.146;2023-06-04T07:05:10;4.15;;;1.60;;
43345;SDS011;28937;51.160;4.146;2023-06-04T07:07:36;2.90;;;1.63;;
43345;SDS011;28937;51.160;4.146;2023-06-04T07:10:02;4.65;;;1.65;;
43345;SDS011;28937;51.160;4.146;2023-06-04T07:12:28;3.92;;;1.42;;
43345;SDS011;28937;51.160;4.146;2023-06-04T07:14:54;3.83;;;1.52;;
43345;SDS011;28937;51.160;4.146;2023-06-04T07:17:21;6.60;;;2.00;;
43345;SDS011;28937;51.160;4.146;2023-06-04T07:19:47;4.20;;;1.55;;
43345;SDS011;28937;51.160;4.146;2023-06-04T07:22:12;1.73;;;1.05;;
43345;SDS011;28937;51.160;4.146;2023-06-04T07:24:40;4.22;;;1.60;;
43345;SDS011;28937;51.160;4.146;2023-06-04T07:27:13;4.20;;;1.58;;
43345;SDS011;28937;51.160;4.146;2023-06-04T07:29:39;2.70;;;1.70;;
43345;SDS011;28937;51.160;4.146;2023-06-04T07:32:05;2.88;;;1.55;;
43345;SDS011;28937;51.160;4.146;2023-06-04T07:34:31;4.15;;;1.80;;
43345;SDS011;28937;51.160;4.146;2023-06-04T07:36:57;2.33;;;1.50;;
43345;SDS011;28937;51.160;4.146;2023-06-04T07:39:23;5.78;;;1.60;;
43345;SDS011;28937;51.160;4.146;2023-06-04T07:41:48;3.08;;;1.40;;
43345;SDS011;28937;51.160;4.146;2023-06-04T07:44:14;2.70;;;0.95;;
43345;SDS011;28937;51.160;4.146;2023-06-04T07:46:39;4.57;;;1.20;;
43345;SDS011;28937;51.160;4.146;2023-06-04T07:49:05;5.60;;;1.23;;
43345;SDS011;28937;51.160;4.146;2023-06-04T07:51:30;3.45;;;1.20;;
43345;SDS011;28937;51.160;4.146;2023-06-04T07:53:56;3.65;;;1.20;;
43345;SDS011;28937;51.160;4.146;2023-06-04T07:56:21;3.15;;;1.30;;
43345;SDS011;28937;51.160;4.146;2023-06-04T07:58:47;2.28;;;1.15;;
43345;SDS011;28937;51.160;4.146;2023-06-04T08:01:13;2.70;;;1.00;;
43345;SDS011;28937;51.160;4.146;2023-06-04T08:03:38;4.13;;;1.10;;
43345;SDS011;28937;51.160;4.146;2023-06-04T08:06:05;3.42;;;1.10;;
43345;SDS011;28937;51.160;4.146;2023-06-04T08:08:31;2.95;;;0.50;;
43345;SDS011;28937;51.160;4.146;2023-06-04T08:10:59;2.03;;;0.98;;
43345;SDS011;28937;51.160;4.146;2023-06-04T08:13:25;1.88;;;0.82;;
43345;SDS011;28937;51.160;4.146;2023-06-04T08:15:50;1.92;;;1.23;;
43345;SDS011;28937;51.160;4.146;2023-06-04T08:18:16;1.85;;;1.00;;
43345;SDS011;28937;51.160;4.146;2023-06-04T08:20:42;2.22;;;0.80;;
43345;SDS011;28937;51.160;4.146;2023-06-04T08:23:07;4.65;;;0.98;;
43345;SDS011;28937;51.160;4.146;2023-06-04T08:25:33;2.22;;;0.95;;
43345;SDS011;28937;51.160;4.146;2023-06-04T08:27:59;1.60;;;0.80;;
43345;SDS011;28937;51.160;4.146;2023-06-04T08:30:24;1.98;;;1.00;;
43345;SDS011;28937;51.160;4.146;2023-06-04T08:32:52;5.95;;;0.80;;
43345;SDS011;28937;51.160;4.146;2023-06-04T08:35:18;3.40;;;1.10;;
43345;SDS011;28937;51.160;4.146;2023-06-04T08:37:44;2.83;;;1.15;;
43345;SDS011;28937;51.160;4.146;2023-06-04T08:40:10;2.17;;;0.93;;
43345;SDS011;28937;51.160;4.146;2023-06-04T08:42:43;2.25;;;0.80;;
43345;SDS011;28937;51.160;4.146;2023-06-04T08:45:12;2.88;;;0.90;;
43345;SDS011;28937;51.160;4.146;2023-06-04T08:47:43;2.63;;;0.90;;
43345;SDS011;28937;51.160;4.146;2023-06-04T08:50:13;3.97;;;0.80;;
43345;SDS011;28937;51.160;4.146;2023-06-04T08:52:42;2.58;;;0.88;;
43345;SDS011;28937;51.160;4.146;2023-06-04T08:55:08;3.45;;;0.98;;
43345;SDS011;28937;51.160;4.146;2023-06-04T08:57:36;2.65;;;0.80;;
43345;SDS011;28937;51.160;4.146;2023-06-04T09:00:02;2.28;;;1.00;;
43345;SDS011;28937;51.160;4.146;2023-06-04T09:02:30;2.47;;;1.00;;
43345;SDS011;28937;51.160;4.146;2023-06-04T09:04:56;2.53;;;0.80;;
43345;SDS011;28937;51.160;4.146;2023-06-04T09:07:22;2.63;;;0.70;;
43345;SDS011;28937;51.160;4.146;2023-06-04T09:09:50;1.50;;;0.68;;
43345;SDS011;28937;51.160;4.146;2023-06-04T09:12:21;2.72;;;0.82;;
43345;SDS011;28937;51.160;4.146;2023-06-04T09:14:50;2.55;;;1.05;;
43345;SDS011;28937;51.160;4.146;2023-06-04T09:17:20;2.55;;;0.77;;
43345;SDS011;28937;51.160;4.146;2023-06-04T09:19:47;2.60;;;0.70;;
43345;SDS011;28937;51.160;4.146;2023-06-04T09:22:12;1.67;;;0.52;;
43345;SDS011;28937;51.160;4.146;2023-06-04T09:24:39;2.70;;;0.88;;
43345;SDS011;28937;51.160;4.146;2023-06-04T09:27:09;3.92;;;0.68;;
43345;SDS011;28937;51.160;4.146;2023-06-04T09:29:36;3.03;;;0.52;;
43345;SDS011;28937;51.160;4.146;2023-06-04T09:32:02;1.30;;;0.60;;
43345;SDS011;28937;51.160;4.146;2023-06-04T09:34:28;2.70;;;0.40;;
43345;SDS011;28937;51.160;4.146;2023-06-04T09:36:57;1.63;;;0.60;;
43345;SDS011;28937;51.160;4.146;2023-06-04T09:39:39;2.17;;;0.85;;
43345;SDS011;28937;51.160;4.146;2023-06-04T09:42:24;1.02;;;0.50;;
43345;SDS011;28937;51.160;4.146;2023-06-04T09:45:34;2.05;;;0.70;;
43345;SDS011;28937;51.160;4.146;2023-06-04T09:48:01;2.35;;;0.50;;
43345;SDS011;28937;51.160;4.146;2023-06-04T09:50:29;4.22;;;1.00;;
43345;SDS011;28937;51.160;4.146;2023-06-04T09:52:55;2.17;;;0.47;;
43345;SDS011;28937;51.160;4.146;2023-06-04T09:55:21;3.10;;;0.82;;
43345;SDS011;28937;51.160;4.146;2023-06-04T09:57:48;2.25;;;0.80;;
43345;SDS011;28937;51.160;4.146;2023-06-04T10:00:18;1.92;;;0.60;;
43345;SDS011;28937;51.160;4.146;2023-06-04T10:02:46;2.78;;;0.70;;
43345;SDS011;28937;51.160;4.146;2023-06-04T10:05:12;2.35;;;0.50;;
43345;SDS011;28937;51.160;4.146;2023-06-04T10:07:39;1.48;;;0.70;;
43345;SDS011;28937;51.160;4.146;2023-06-04T10:13:05;3.00;;;0.90;;
43345;SDS011;28937;51.160;4.146;2023-06-04T10:18:01;2.00;;;0.85;;
43345;SDS011;28937;51.160;4.146;2023-06-04T10:20:28;2.58;;;0.43;;
43345;SDS011;28937;51.160;4.146;2023-06-04T10:22:54;3.08;;;0.75;;
43345;SDS011;28937;51.160;4.146;2023-06-04T10:25:20;2.78;;;0.50;;
43345;SDS011;28937;51.160;4.146;2023-06-04T10:27:46;1.65;;;0.45;;
43345;SDS011;28937;51.160;4.146;2023-06-04T10:30:12;4.35;;;0.80;;
43345;SDS011;28937;51.160;4.146;2023-06-04T10:32:38;1.77;;;0.60;;
43345;SDS011;28937;51.160;4.146;2023-06-04T10:35:04;1.45;;;0.70;;
43345;SDS011;28937;51.160;4.146;2023-06-04T10:37:33;1.75;;;0.70;;
43345;SDS011;28937;51.160;4.146;2023-06-04T10:39:58;1.80;;;0.80;;
43345;SDS011;28937;51.160;4.146;2023-06-04T10:42:25;3.78;;;0.75;;
43345;SDS011;28937;51.160;4.146;2023-06-04T10:44:51;1.65;;;1.00;;
43345;SDS011;28937;51.160;4.146;2023-06-04T10:47:21;3.42;;;1.20;;
43345;SDS011;28937;51.160;4.146;2023-06-04T10:49:51;2.65;;;0.80;;
43345;SDS011;28937;51.160;4.146;2023-06-04T10:52:19;3.45;;;0.52;;
43345;SDS011;28937;51.160;4.146;2023-06-04T10:54:45;3.30;;;0.90;;
43345;SDS011;28937;51.160;4.146;2023-06-04T10:57:17;4.05;;;0.70;;
43345;SDS011;28937;51.160;4.146;2023-06-04T10:59:53;2.47;;;0.65;;
43345;SDS011;28937;51.160;4.146;2023-06-04T11:02:22;2.78;;;0.55;;
43345;SDS011;28937;51.160;4.146;2023-06-04T11:04:58;1.70;;;0.68;;
43345;SDS011;28937;51.160;4.146;2023-06-04T11:07:26;1.35;;;0.43;;
43345;SDS011;28937;51.160;4.146;2023-06-04T11:09:52;1.00;;;0.68;;
43345;SDS011;28937;51.160;4.146;2023-06-04T11:12:18;1.55;;;0.70;;
43345;SDS011;28937;51.160;4.146;2023-06-04T11:14:53;2.00;;;0.50;;
43345;SDS011;28937;51.160;4.146;2023-06-04T11:17:20;3.88;;;1.08;;
43345;SDS011;28937;51.160;4.146;2023-06-04T11:19:45;1.33;;;0.63;;
43345;SDS011;28937;51.160;4.146;2023-06-04T11:22:11;1.30;;;0.60;;
43345;SDS011;28937;51.160;4.146;2023-06-04T11:24:37;2.90;;;0.60;;
43345;SDS011;28937;51.160;4.146;2023-06-04T11:27:03;2.30;;;0.70;;
43345;SDS011;28937;51.160;4.146;2023-06-04T11:29:29;2.22;;;0.65;;
43345;SDS011;28937;51.160;4.146;2023-06-04T11:31:55;1.48;;;0.60;;
43345;SDS011;28937;51.160;4.146;2023-06-04T11:34:25;1.77;;;0.50;;
43345;SDS011;28937;51.160;4.146;2023-06-04T11:37:06;3.00;;;0.90;;
43345;SDS011;28937;51.160;4.146;2023-06-04T11:39:36;1.98;;;0.73;;
43345;SDS011;28937;51.160;4.146;2023-06-04T11:42:07;2.17;;;0.63;;
43345;SDS011;28937;51.160;4.146;2023-06-04T11:44:33;2.33;;;0.70;;
43345;SDS011;28937;51.160;4.146;2023-06-04T11:46:59;3.55;;;0.50;;
43345;SDS011;28937;51.160;4.146;2023-06-04T11:49:25;1.98;;;0.57;;
43345;SDS011;28937;51.160;4.146;2023-06-04T11:51:52;3.47;;;0.60;;
43345;SDS011;28937;51.160;4.146;2023-06-04T11:54:19;2.38;;;0.70;;
43345;SDS011;28937;51.160;4.146;2023-06-04T11:56:48;2.65;;;0.60;;
43345;SDS011;28937;51.160;4.146;2023-06-04T11:59:15;2.15;;;0.80;;
43345;SDS011;28937;51.160;4.146;2023-06-04T12:01:45;1.20;;;0.80;;
43345;SDS011;28937;51.160;4.146;2023-06-04T12:04:12;1.35;;;0.70;;
43345;SDS011;28937;51.160;4.146;2023-06-04T12:06:51;1.20;;;0.70;;
43345;SDS011;28937;51.160;4.146;2023-06-04T12:09:25;1.15;;;0.60;;
43345;SDS011;28937;51.160;4.146;2023-06-04T12:12:02;4.70;;;0.90;;
43345;SDS011;28937;51.160;4.146;2023-06-04T12:14:33;1.77;;;0.70;;
43345;SDS011;28937;51.160;4.146;2023-06-04T12:17:00;2.35;;;0.85;;
43345;SDS011;28937;51.160;4.146;2023-06-04T12:19:31;2.70;;;0.88;;
43345;SDS011;28937;51.160;4.146;2023-06-04T12:22:07;1.27;;;0.65;;
43345;SDS011;28937;51.160;4.146;2023-06-04T12:24:33;1.10;;;0.60;;
43345;SDS011;28937;51.160;4.146;2023-06-04T12:27:11;4.00;;;0.88;;
43345;SDS011;28937;51.160;4.146;2023-06-04T12:29:37;6.70;;;1.00;;
43345;SDS011;28937;51.160;4.146;2023-06-04T12:32:03;2.65;;;0.70;;
43345;SDS011;28937;51.160;4.146;2023-06-04T12:34:33;6.20;;;0.80;;
43345;SDS011;28937;51.160;4.146;2023-06-04T12:36:59;1.80;;;0.80;;
43345;SDS011;28937;51.160;4.146;2023-06-04T12:39:25;3.45;;;0.80;;
43345;SDS011;28937;51.160;4.146;2023-06-04T12:41:50;2.47;;;0.70;;
43345;SDS011;28937;51.160;4.146;2023-06-04T12:44:16;2.67;;;0.60;;
43345;SDS011;28937;51.160;4.146;2023-06-04T12:46:42;3.17;;;0.93;;
43345;SDS011;28937;51.160;4.146;2023-06-04T12:49:08;1.30;;;0.80;;
43345;SDS011;28937;51.160;4.146;2023-06-04T12:51:34;3.65;;;0.90;;
43345;SDS011;28937;51.160;4.146;2023-06-04T12:54:01;1.30;;;0.70;;
43345;SDS011;28937;51.160;4.146;2023-06-04T12:56:27;2.97;;;1.00;;
43345;SDS011;28937;51.160;4.146;2023-06-04T12:58:52;3.05;;;0.70;;
43345;SDS011;28937;51.160;4.146;2023-06-04T13:01:18;3.35;;;0.80;;
43345;SDS011;28937;51.160;4.146;2023-06-04T13:03:44;3.35;;;1.13;;
43345;SDS011;28937;51.160;4.146;2023-06-04T13:06:09;2.80;;;0.60;;
43345;SDS011;28937;51.160;4.146;2023-06-04T13:08:35;3.35;;;1.10;;
43345;SDS011;28937;51.160;4.146;2023-06-04T13:11:01;5.45;;;0.90;;
43345;SDS011;28937;51.160;4.146;2023-06-04T13:13:27;2.05;;;0.88;;
43345;SDS011;28937;51.160;4.146;2023-06-04T13:15:53;2.55;;;0.88;;
43345;SDS011;28937;51.160;4.146;2023-06-04T13:18:19;4.13;;;0.90;;
43345;SDS011;28937;51.160;4.146;2023-06-04T13:20:45;2.33;;;0.90;;
43345;SDS011;28937;51.160;4.146;2023-06-04T13:23:10;3.35;;;0.98;;
43345;SDS011;28937;51.160;4.146;2023-06-04T13:25:37;3.47;;;1.00;;
43345;SDS011;28937;51.160;4.146;2023-06-04T13:28:03;2.80;;;1.02;;
43345;SDS011;28937;51.160;4.146;2023-06-04T13:30:29;3.75;;;0.93;;
43345;SDS011;28937;51.160;4.146;2023-06-04T13:32:55;3.15;;;1.17;;
43345;SDS011;28937;51.160;4.146;2023-06-04T13:35:23;2.70;;;1.15;;
43345;SDS011;28937;51.160;4.146;2023-06-04T13:37:49;2.13;;;0.98;;
43345;SDS011;28937;51.160;4.146;2023-06-04T13:40:15;1.42;;;1.00;;
43345;SDS011;28937;51.160;4.146;2023-06-04T13:42:40;4.30;;;0.70;;
43345;SDS011;28937;51.160;4.146;2023-06-04T13:45:08;2.35;;;1.20;;
43345;SDS011;28937;51.160;4.146;2023-06-04T13:47:33;3.90;;;0.95;;
43345;SDS011;28937;51.160;4.146;2023-06-04T13:49:59;1.13;;;0.60;;
43345;SDS011;28937;51.160;4.146;2023-06-04T13:52:25;2.60;;;1.08;;
43345;SDS011;28937;51.160;4.146;2023-06-04T13:54:53;1.88;;;1.10;;
43345;SDS011;28937;51.160;4.146;2023-06-04T13:57:19;3.38;;;0.90;;
43345;SDS011;28937;51.160;4.146;2023-06-04T13:59:44;4.60;;;0.82;;
43345;SDS011;28937;51.160;4.146;2023-06-04T14:02:10;1.85;;;1.23;;
43345;SDS011;28937;51.160;4.146;2023-06-04T14:04:36;3.30;;;1.10;;
43345;SDS011;28937;51.160;4.146;2023-06-04T14:07:01;3.17;;;1.00;;
43345;SDS011;28937;51.160;4.146;2023-06-04T14:09:27;2.63;;;1.00;;
43345;SDS011;28937;51.160;4.146;2023-06-04T14:11:53;2.15;;;1.15;;
43345;SDS011;28937;51.160;4.146;2023-06-04T14:14:20;2.92;;;1.40;;
43345;SDS011;28937;51.160;4.146;2023-06-04T14:16:48;2.20;;;1.17;;
43345;SDS011;28937;51.160;4.146;2023-06-04T14:19:14;1.73;;;1.20;;
43345;SDS011;28937;51.160;4.146;2023-06-04T14:21:40;2.88;;;1.35;;
43345;SDS011;28937;51.160;4.146;2023-06-04T14:24:10;3.47;;;0.93;;
43345;SDS011;28937;51.160;4.146;2023-06-04T14:26:35;2.47;;;0.88;;
43345;SDS011;28937;51.160;4.146;2023-06-04T14:29:01;1.80;;;0.90;;
43345;SDS011;28937;51.160;4.146;2023-06-04T14:31:27;2.42;;;1.00;;
43345;SDS011;28937;51.160;4.146;2023-06-04T14:33:53;2.30;;;1.17;;
43345;SDS011;28937;51.160;4.146;2023-06-04T14:36:19;2.88;;;1.05;;
43345;SDS011;28937;51.160;4.146;2023-06-04T14:38:45;3.38;;;1.10;;
43345;SDS011;28937;51.160;4.146;2023-06-04T14:41:14;2.60;;;1.00;;
43345;SDS011;28937;51.160;4.146;2023-06-04T14:43:40;3.63;;;1.08;;
43345;SDS011;28937;51.160;4.146;2023-06-04T14:46:06;1.80;;;1.15;;
43345;SDS011;28937;51.160;4.146;2023-06-04T14:48:31;5.20;;;1.42;;
43345;SDS011;28937;51.160;4.146;2023-06-04T14:50:57;2.17;;;1.38;;